Hauptseite
METAR-TAF:

METAR-TAF

Flughäfen :

Saarbrücken, Deutschland

Flughafen Saarbrücken

Breite: 49-13N, Länge: 007-07E, Höhe: 322 m

Beobachtung

Neuester Wetterbericht von vor 8 Minuten, um 11:50 UTC
Wind 5 kt aus Süd/Südwest, variierte zwischen Ost/Südost und West/Südwest
Temperatur 20°C
Luftfeuchtigkeit 53%
Luftdruck 1024 hPa
Sichtweite 10 km oder mehr
Leicht bewölkt in der Höhe von 4000 ft
Aufgelockert bewölkt in der Höhe von 25000 ft

METAR: EDDR 211150Z 20005KT 110V250 9999 FEW040 SCT250 20/10 Q1024 NOSIG

Zeit: 13:58 (11:58 UTC)

Prognose

Neuester Wetterbericht von vor 58 Minuten, um 11:00 UTC
Gültige Prognose vom 21 um 12 UTC bis 22 um 12 UTC
Wind 3 kt aus unterschiedlichen Richtungen
Sichtweite 10 km oder mehr
Leicht bewölkt in der Höhe von 3500 ft
Übergehend zu
vom 22 um 08 UTC bis 22 um 11 UTC
Wind 5 kt aus Ost

TAF: EDDR 211100Z 2112/2212 VRB03KT 9999 FEW035 BECMG 2208/2211 09005KT

Wetterbeobachtungen und Prognosen von mehr als 4000 Flughäfen (METAR und TAF Bericht).

Die verfügbaren Stationen werden durch gelbe und rote Markierungen auf der Karte dargestellt.

Führen Sie die Maus auf sie, um den Namen der Station zu sehen.

Darauf klicken, um die Beobachtung von Wetterbeobachtungen und Prognosen zu sehen.

Um die Karte zu ändern : klicken Sie auf den grünen Tasten mit einem schwarzen Kreuz Zum Vergrößern, auf den grünen Button mit einem Gedankenstrich zu verkleinern, oder auf die grünen Pfeile für benachbarte Karten.


METAR-TAF: